createdAt,value
2019-01-20T00:00:43.432Z,135.53
2019-01-20T00:03:47.112Z,140.73
2019-01-20T00:06:50.802Z,132.50
2019-01-20T00:09:54.507Z,123.80
2019-01-20T00:12:58.232Z,122.00
2019-01-20T00:16:01.993Z,128.23
2019-01-20T00:19:05.654Z,120.97
2019-01-20T00:22:09.338Z,124.43
2019-01-20T00:25:13.098Z,113.20
2019-01-20T00:28:16.693Z,126.63
2019-01-20T00:31:20.398Z,125.30
2019-01-20T00:34:24.117Z,129.50
2019-01-20T00:37:27.955Z,132.63
2019-01-20T00:40:31.663Z,121.90
2019-01-20T00:43:35.315Z,127.53
2019-01-20T00:46:39.048Z,125.63
2019-01-20T00:49:42.725Z,124.97
2019-01-20T00:52:46.426Z,124.57
2019-01-20T00:55:50.057Z,130.83
2019-01-20T00:58:53.762Z,133.27
2019-01-20T01:01:57.637Z,131.93
2019-01-20T01:05:01.306Z,128.37
2019-01-20T01:08:05.048Z,128.17
2019-01-20T01:11:08.772Z,128.90
2019-01-20T01:14:12.472Z,127.60
2019-01-20T01:17:16.140Z,120.00
2019-01-20T01:20:20.208Z,122.10
2019-01-20T01:23:23.883Z,121.20
2019-01-20T01:26:27.573Z,128.57
2019-01-20T01:29:31.243Z,122.50
2019-01-20T01:32:34.943Z,126.60
2019-01-20T01:35:38.667Z,116.63
2019-01-20T01:38:42.443Z,124.90
2019-01-20T01:41:46.150Z,123.63
2019-01-20T01:44:49.836Z,119.70
2019-01-20T01:47:53.512Z,121.57
2019-01-20T01:50:57.195Z,116.20
2019-01-20T01:54:00.863Z,119.23
2019-01-20T01:57:04.636Z,115.90
2019-01-20T02:00:19.583Z,116.57
2019-01-20T02:03:23.288Z,118.60
2019-01-20T02:06:26.953Z,127.23
2019-01-20T02:09:30.652Z,115.13
2019-01-20T02:12:34.285Z,109.67
2019-01-20T02:15:38.002Z,113.40
2019-01-20T02:18:41.670Z,116.00
2019-01-20T02:21:45.345Z,124.80
2019-01-20T02:24:48.995Z,124.40
2019-01-20T02:27:54.392Z,117.13
2019-01-20T02:30:58.133Z,111.70
2019-01-20T02:34:01.820Z,116.17
2019-01-20T02:37:05.503Z,115.67
2019-01-20T02:40:12.177Z,112.17
2019-01-20T02:43:15.859Z,106.50
2019-01-20T02:46:19.548Z,106.73
2019-01-20T02:49:23.237Z,103.60
2019-01-20T02:52:26.922Z,105.47
2019-01-20T02:55:30.603Z,110.70
2019-01-20T02:58:34.283Z,105.20
2019-01-20T03:01:38.052Z,96.97
2019-01-20T03:04:41.725Z,94.70
2019-01-20T03:07:45.376Z,90.93
2019-01-20T03:10:49.073Z,99.13
2019-01-20T03:13:52.747Z,105.73
2019-01-20T03:16:56.443Z,99.83
2019-01-20T03:20:00.284Z,97.80
2019-01-20T03:23:03.996Z,84.33
2019-01-20T03:26:07.705Z,79.83
2019-01-20T03:29:11.380Z,73.30
2019-01-20T03:32:15.069Z,70.27
2019-01-20T03:35:21.517Z,73.33
2019-01-20T03:38:25.219Z,83.53
2019-01-20T03:41:28.892Z,73.07
2019-01-20T03:44:32.615Z,73.73
2019-01-20T03:47:36.772Z,77.37
2019-01-20T03:50:40.469Z,83.57
2019-01-20T03:53:44.172Z,82.53
2019-01-20T03:56:47.827Z,81.17
2019-01-20T03:59:51.517Z,80.73
2019-01-20T04:02:56.762Z,85.80
2019-01-20T04:06:00.458Z,80.27
2019-01-20T04:09:07.057Z,85.50
2019-01-20T04:12:10.728Z,85.23
2019-01-20T04:15:15.285Z,77.67
2019-01-20T04:18:18.943Z,78.50
2019-01-20T04:21:22.656Z,84.47
2019-01-20T04:24:26.346Z,80.73
2019-01-20T04:27:30.014Z,83.13
2019-01-20T04:30:33.683Z,76.07
2019-01-20T04:33:37.363Z,73.87
2019-01-20T04:36:41.000Z,79.93
2019-01-20T04:39:44.675Z,75.77
2019-01-20T04:42:48.328Z,84.70
2019-01-20T04:45:52.024Z,74.93
2019-01-20T04:48:55.694Z,70.97
2019-01-20T04:51:59.382Z,69.53
2019-01-20T04:55:03.092Z,71.33
2019-01-20T04:58:06.941Z,70.20
2019-01-20T05:01:10.636Z,77.77
2019-01-20T05:04:14.296Z,70.90
2019-01-20T05:07:17.963Z,67.20
2019-01-20T05:10:21.632Z,80.47
2019-01-20T05:13:25.322Z,85.30
2019-01-20T05:16:28.958Z,81.20
2019-01-20T05:19:32.683Z,75.20
2019-01-20T05:22:36.401Z,86.03
2019-01-20T05:25:40.103Z,81.93
2019-01-20T05:28:43.811Z,83.07
2019-01-20T05:31:47.467Z,76.33
2019-01-20T05:34:51.132Z,84.83
2019-01-20T05:37:54.792Z,88.57
2019-01-20T05:40:58.471Z,87.27
2019-01-20T05:44:02.240Z,77.53
2019-01-20T05:47:05.922Z,80.10
2019-01-20T05:50:11.943Z,92.30
2019-01-20T05:53:15.617Z,87.03
2019-01-20T05:56:19.312Z,89.90
2019-01-20T05:59:22.968Z,89.67
2019-01-20T06:02:26.645Z,89.37
2019-01-20T06:05:30.322Z,94.97
2019-01-20T06:08:34.002Z,92.80
2019-01-20T06:11:37.680Z,97.33
2019-01-20T06:14:41.345Z,95.63
2019-01-20T06:17:45.058Z,91.17
2019-01-20T06:20:48.776Z,85.80
2019-01-20T06:23:52.528Z,83.17
2019-01-20T06:26:56.192Z,77.57
2019-01-20T06:29:59.888Z,82.20
2019-01-20T06:33:03.532Z,85.33
2019-01-20T06:36:07.244Z,80.50
2019-01-20T06:39:10.882Z,84.30
2019-01-20T06:42:14.581Z,78.57
2019-01-20T06:45:18.294Z,84.70
2019-01-20T06:48:22.002Z,89.53
2019-01-20T06:51:25.675Z,87.40
2019-01-20T06:54:29.370Z,87.87
2019-01-20T06:57:33.073Z,84.97
2019-01-20T07:00:36.744Z,85.33
2019-01-20T07:03:40.442Z,80.27
2019-01-20T07:06:44.092Z,88.97
2019-01-20T07:09:47.784Z,85.47
2019-01-20T07:12:51.468Z,80.00
2019-01-20T07:15:55.152Z,74.87
2019-01-20T07:18:58.812Z,81.20
2019-01-20T07:22:02.540Z,73.80
2019-01-20T07:25:07.745Z,78.73
2019-01-20T07:28:11.412Z,84.30
2019-01-20T07:31:15.103Z,82.00
2019-01-20T07:34:18.769Z,79.23
2019-01-20T07:37:22.465Z,73.53
2019-01-20T07:40:26.128Z,74.37
2019-01-20T07:43:29.831Z,74.80
2019-01-20T07:46:33.487Z,78.13
2019-01-20T07:49:37.148Z,75.07
2019-01-20T07:52:40.802Z,77.63
2019-01-20T07:55:44.496Z,78.17
2019-01-20T07:58:48.140Z,78.03
2019-01-20T08:01:51.847Z,61.17
2019-01-20T08:04:55.565Z,79.47
2019-01-20T08:07:59.229Z,70.00
2019-01-20T08:11:02.940Z,72.63
2019-01-20T08:14:06.602Z,83.60
2019-01-20T08:17:11.356Z,82.50
2019-01-20T08:20:19.891Z,79.87
2019-01-20T08:23:23.593Z,76.10
2019-01-20T08:26:27.298Z,83.27
2019-01-20T08:29:30.968Z,82.10
2019-01-20T08:32:34.685Z,86.93
2019-01-20T08:35:38.366Z,83.37
2019-01-20T08:38:42.084Z,86.67
2019-01-20T08:41:45.686Z,80.27
2019-01-20T08:44:49.375Z,82.73
2019-01-20T08:47:54.535Z,81.10
2019-01-20T08:50:58.355Z,85.00
2019-01-20T08:54:02.043Z,88.27
2019-01-20T08:57:05.755Z,84.10
2019-01-20T09:00:14.975Z,82.73
2019-01-20T09:03:18.655Z,82.00
2019-01-20T09:06:22.336Z,79.10
2019-01-20T09:09:26.001Z,93.03
2019-01-20T09:12:30.508Z,81.53
2019-01-20T09:15:34.167Z,82.57
2019-01-20T09:18:40.115Z,88.13
2019-01-20T09:21:43.775Z,93.53
2019-01-20T09:24:47.505Z,80.23
2019-01-20T09:27:51.223Z,85.83
2019-01-20T09:30:54.884Z,88.50
2019-01-20T09:33:58.551Z,84.50
2019-01-20T09:37:02.298Z,81.03
2019-01-20T09:40:08.611Z,81.97
2019-01-20T09:43:12.282Z,87.60
2019-01-20T09:46:16.394Z,92.43
2019-01-20T09:49:20.227Z,87.40
2019-01-20T09:52:23.924Z,66.93
2019-01-20T09:55:27.620Z,84.37
2019-01-20T09:58:31.283Z,85.93
2019-01-20T10:01:34.964Z,79.80
2019-01-20T10:04:38.616Z,74.10
2019-01-20T10:07:42.276Z,75.33
2019-01-20T10:10:45.942Z,81.27
2019-01-20T10:13:54.769Z,82.13
2019-01-20T10:16:54.976Z,82.77
2019-01-20T10:19:58.667Z,82.30
2019-01-20T10:23:02.394Z,78.03
2019-01-20T10:26:06.069Z,83.30
2019-01-20T10:29:09.720Z,82.37
2019-01-20T10:32:13.407Z,79.70
2019-01-20T10:35:17.787Z,71.17
2019-01-20T10:38:21.443Z,79.17
2019-01-20T10:41:25.180Z,77.80
2019-01-20T10:44:28.793Z,72.53
2019-01-20T10:47:32.502Z,75.23
2019-01-20T10:50:36.165Z,74.00
2019-01-20T10:53:39.875Z,74.57
2019-01-20T10:56:43.578Z,74.07
2019-01-20T10:59:47.251Z,80.93
2019-01-20T11:02:50.932Z,69.60
2019-01-20T11:05:54.602Z,77.97
2019-01-20T11:08:58.323Z,69.90
2019-01-20T11:12:01.980Z,72.17
2019-01-20T11:15:08.900Z,84.37
2019-01-20T11:18:12.528Z,77.40
2019-01-20T11:21:16.203Z,78.20
2019-01-20T11:24:19.940Z,70.13
2019-01-20T11:27:23.636Z,68.63
2019-01-20T11:30:27.318Z,72.70
2019-01-20T11:33:31.028Z,73.60
2019-01-20T11:36:34.733Z,74.77
2019-01-20T11:39:38.461Z,73.13
2019-01-20T11:42:42.266Z,63.33
2019-01-20T11:45:46.023Z,70.97
2019-01-20T11:48:49.723Z,61.30
2019-01-20T11:51:53.373Z,65.07
2019-01-20T11:55:00.787Z,65.27
2019-01-20T11:58:04.591Z,60.77
2019-01-20T12:01:08.251Z,60.27
2019-01-20T12:04:11.947Z,66.53
2019-01-20T12:07:15.628Z,64.57
2019-01-20T12:10:19.318Z,69.63
2019-01-20T12:13:24.570Z,70.57
2019-01-20T12:16:28.234Z,75.40
2019-01-20T12:19:31.878Z,75.27
2019-01-20T12:22:35.620Z,73.80
2019-01-20T12:29:11.380Z,73.60
2019-01-20T12:32:15.085Z,76.00
2019-01-20T12:35:18.781Z,81.33
2019-01-20T12:38:22.472Z,78.13
2019-01-20T12:41:26.193Z,70.83
2019-01-20T12:44:31.543Z,69.37
2019-01-20T12:47:35.238Z,71.73
2019-01-20T12:50:38.903Z,67.83
2019-01-20T12:53:42.604Z,65.40
2019-01-20T12:56:47.346Z,61.30
2019-01-20T12:59:51.368Z,65.93
2019-01-20T13:02:55.102Z,67.77
2019-01-20T13:05:58.763Z,66.87
2019-01-20T13:09:02.469Z,56.47
2019-01-20T13:12:06.136Z,55.80
2019-01-20T13:15:12.240Z,58.53
2019-01-20T13:18:15.884Z,64.27
2019-01-20T13:21:19.621Z,56.20
2019-01-20T13:24:23.302Z,50.03
2019-01-20T13:27:27.017Z,48.27
2019-01-20T13:30:30.727Z,46.30
2019-01-20T13:33:34.416Z,55.20
2019-01-20T13:36:38.102Z,54.93
2019-01-20T13:39:41.808Z,79.40
2019-01-20T13:42:45.538Z,61.53
2019-01-20T13:45:49.233Z,51.20
2019-01-20T13:48:52.934Z,54.90
2019-01-20T13:51:56.619Z,55.33
2019-01-20T13:55:00.323Z,54.93
2019-01-20T13:58:03.993Z,58.47
2019-01-20T14:01:07.696Z,60.83
2019-01-20T14:04:11.400Z,61.53
2019-01-20T14:07:15.062Z,63.97
2019-01-20T14:10:23.443Z,66.73
2019-01-20T14:13:27.127Z,63.63
2019-01-20T14:16:30.812Z,64.47
2019-01-20T14:19:34.494Z,66.00
2019-01-20T14:22:38.168Z,63.30
2019-01-20T14:25:41.872Z,60.20
2019-01-20T14:28:45.544Z,58.93
2019-01-20T14:31:49.280Z,64.77
2019-01-20T14:34:52.943Z,66.83
2019-01-20T14:37:56.698Z,68.77
2019-01-20T14:41:00.343Z,69.90
2019-01-20T14:44:04.112Z,75.57
2019-01-20T14:47:07.772Z,76.60
2019-01-20T14:50:14.653Z,73.60
2019-01-20T14:53:18.388Z,71.47
2019-01-20T14:56:22.046Z,74.97
2019-01-20T14:59:25.734Z,77.40
2019-01-20T15:02:29.400Z,84.80
2019-01-20T15:05:33.095Z,85.13
2019-01-20T15:08:36.783Z,85.00
2019-01-20T15:11:40.443Z,94.03
2019-01-20T15:14:44.132Z,86.67
2019-01-20T15:17:47.818Z,86.90
2019-01-20T15:20:51.482Z,83.43
2019-01-20T15:23:55.168Z,79.63
2019-01-20T15:26:58.837Z,79.83
2019-01-20T15:30:02.486Z,76.47
2019-01-20T15:33:06.381Z,78.60
2019-01-20T15:36:10.058Z,77.87
2019-01-20T15:39:13.758Z,77.80
2019-01-20T15:42:17.432Z,74.87
2019-01-20T15:45:22.515Z,83.90
2019-01-20T15:48:26.184Z,85.07
2019-01-20T15:51:29.893Z,80.77
2019-01-20T15:54:33.584Z,82.20
2019-01-20T15:57:37.233Z,82.03
2019-01-20T16:00:40.954Z,85.63
2019-01-20T16:03:44.716Z,83.87
2019-01-20T16:06:48.408Z,79.57
2019-01-20T16:09:52.066Z,82.67
2019-01-20T16:12:55.743Z,81.93
2019-01-20T16:15:59.406Z,83.20
2019-01-20T16:19:03.109Z,85.90
2019-01-20T16:22:06.834Z,88.77
2019-01-20T16:25:19.073Z,84.17
2019-01-20T16:28:22.789Z,82.43
2019-01-20T16:31:26.437Z,84.53
2019-01-20T16:34:30.139Z,84.23
2019-01-20T16:37:33.822Z,86.33
2019-01-20T16:40:37.521Z,86.50
2019-01-20T16:43:41.190Z,88.33
2019-01-20T16:46:45.487Z,91.83
2019-01-20T16:49:49.136Z,91.27
2019-01-20T16:52:54.659Z,100.00
2019-01-20T16:55:58.500Z,101.07
2019-01-20T16:59:02.257Z,101.03
2019-01-20T17:02:06.036Z,98.57
2019-01-20T17:05:11.256Z,97.67
2019-01-20T17:08:16.022Z,94.77
2019-01-20T17:11:19.744Z,102.80
2019-01-20T17:14:23.404Z,110.57
2019-01-20T17:17:27.132Z,100.67
2019-01-20T17:20:30.815Z,103.50
2019-01-20T17:23:34.495Z,105.63
2019-01-20T17:26:38.195Z,98.63
2019-01-20T17:29:41.891Z,101.60
2019-01-20T17:32:45.552Z,97.37
2019-01-20T17:35:49.251Z,96.73
2019-01-20T17:38:54.069Z,97.83
2019-01-20T17:41:57.728Z,93.70
2019-01-20T17:45:01.436Z,87.07
2019-01-20T17:48:05.073Z,94.30
2019-01-20T17:51:11.573Z,84.17
2019-01-20T17:54:15.260Z,84.87
2019-01-20T17:57:18.952Z,88.47
2019-01-20T18:00:26.631Z,118.40
2019-01-20T18:03:30.335Z,132.57
2019-01-20T18:06:34.096Z,104.30
2019-01-20T18:09:39.368Z,98.70
2019-01-20T18:12:43.082Z,111.70
2019-01-20T18:15:54.061Z,107.57
2019-01-20T18:18:52.140Z,94.43
2019-01-20T18:21:55.823Z,92.17
2019-01-20T18:24:59.522Z,93.57
2019-01-20T18:28:03.202Z,100.30
2019-01-20T18:31:06.903Z,101.33
2019-01-20T18:34:10.713Z,112.27
2019-01-20T18:37:14.405Z,102.73
2019-01-20T18:40:20.541Z,108.63
2019-01-20T18:43:24.362Z,111.33
2019-01-20T18:46:28.003Z,103.43
2019-01-20T18:49:31.663Z,112.80
2019-01-20T18:52:35.380Z,109.30
2019-01-20T18:55:39.113Z,112.27
2019-01-20T18:58:42.802Z,118.57
2019-01-20T19:01:46.617Z,115.07
2019-01-20T19:04:50.262Z,113.23
2019-01-20T19:07:55.511Z,110.10
2019-01-20T19:10:59.483Z,104.47
2019-01-20T19:14:03.148Z,104.17
2019-01-20T19:17:06.844Z,106.70
2019-01-20T19:20:16.101Z,109.63
2019-01-20T19:23:19.825Z,107.27
2019-01-20T19:26:23.484Z,111.40
2019-01-20T19:29:27.214Z,110.97
2019-01-20T19:32:31.669Z,111.80
2019-01-20T19:35:35.383Z,104.20
2019-01-20T19:38:39.012Z,101.53
2019-01-20T19:41:42.744Z,106.73
2019-01-20T19:44:46.382Z,103.43
2019-01-20T19:47:50.076Z,96.97
2019-01-20T19:50:53.783Z,92.03
2019-01-20T19:53:57.495Z,92.90
2019-01-20T19:57:01.223Z,97.90
2019-01-20T20:00:08.253Z,104.93
2019-01-20T20:03:11.990Z,94.33
2019-01-20T20:06:15.653Z,97.23
2019-01-20T20:09:20.130Z,97.10
2019-01-20T20:12:23.797Z,97.27
2019-01-20T20:15:28.014Z,103.90
2019-01-20T20:18:31.704Z,102.87
2019-01-20T20:21:35.406Z,95.27
2019-01-20T20:24:39.082Z,94.13
2019-01-20T20:27:42.811Z,91.20
2019-01-20T20:30:46.636Z,95.00
2019-01-20T20:33:50.307Z,101.10
2019-01-20T20:36:55.435Z,102.40
2019-01-20T20:39:59.098Z,97.47
2019-01-20T20:43:02.765Z,99.23
2019-01-20T20:46:06.412Z,99.60
2019-01-20T20:49:10.096Z,109.67
2019-01-20T20:52:15.361Z,111.50
2019-01-20T20:55:20.876Z,108.40
2019-01-20T20:58:24.556Z,112.03
2019-01-20T21:01:28.243Z,112.03
2019-01-20T21:04:32.027Z,112.30
2019-01-20T21:07:35.733Z,109.57
2019-01-20T21:10:39.390Z,114.77
2019-01-20T21:13:43.136Z,126.83
2019-01-20T21:16:46.853Z,130.10
2019-01-20T21:19:51.626Z,110.90
2019-01-20T21:22:55.284Z,112.53
2019-01-20T21:25:58.978Z,115.17
2019-01-20T21:29:02.627Z,114.20
2019-01-20T21:32:06.319Z,112.80
2019-01-20T21:35:10.012Z,108.47
2019-01-20T21:38:13.687Z,102.83
2019-01-20T21:41:17.379Z,105.50
2019-01-20T21:44:21.073Z,106.83
2019-01-20T21:47:24.762Z,99.47
2019-01-20T21:50:30.470Z,96.37
2019-01-20T21:53:34.152Z,101.40
2019-01-20T21:56:37.855Z,92.23
2019-01-20T21:59:41.520Z,91.63
2019-01-20T22:02:45.209Z,90.83
2019-01-20T22:05:48.911Z,92.00
2019-01-20T22:08:52.660Z,84.17
2019-01-20T22:11:56.382Z,88.50
2019-01-20T22:15:00.091Z,87.73
2019-01-20T22:18:03.901Z,83.47
2019-01-20T22:21:07.613Z,83.10
2019-01-20T22:24:11.361Z,88.20
2019-01-20T22:27:15.038Z,86.30
2019-01-20T22:30:23.505Z,113.47
2019-01-20T22:33:27.223Z,105.03
2019-01-20T22:36:30.897Z,203.57
2019-01-20T22:39:34.592Z,149.77
2019-01-20T22:42:38.308Z,123.97
2019-01-20T22:45:41.996Z,99.60
2019-01-20T22:48:45.645Z,116.33
2019-01-20T22:51:49.328Z,126.07
2019-01-20T22:54:52.980Z,125.43
2019-01-20T22:57:56.677Z,129.57
2019-01-20T23:01:00.518Z,136.97
2019-01-20T23:04:04.255Z,123.90
2019-01-20T23:07:08.049Z,126.23
2019-01-20T23:10:11.724Z,125.67
2019-01-20T23:13:15.507Z,123.27
2019-01-20T23:16:19.175Z,132.30
2019-01-20T23:19:22.863Z,135.00
2019-01-20T23:22:26.575Z,132.90
2019-01-20T23:25:30.225Z,132.20
2019-01-20T23:28:33.964Z,129.53
2019-01-20T23:31:37.626Z,118.63
2019-01-20T23:34:41.327Z,97.50
2019-01-20T23:37:44.974Z,115.67
2019-01-20T23:40:48.687Z,112.17
2019-01-20T23:43:52.396Z,105.53
2019-01-20T23:46:56.163Z,105.90
2019-01-20T23:49:59.871Z,114.07
2019-01-20T23:53:03.519Z,100.23
2019-01-20T23:56:07.212Z,114.57
2019-01-20T23:59:10.864Z,99.90
